Time;durP1;ratioP1;P1;durP2;ratioP2;P2;SDS_P1;SDS_P2;PMS_P1;PMS_P2;Temp;Humidity;BMP_temperature;BMP_pressure;BME280_temperature;BME280_humidity;BME280_pressure;Samples;Min_cycle;Max_cycle;Signal;HPM_P1;HPM_P2
2022/05/31 00:02:24;;;;;;;11.23;6.20;;;10.00;69.10;;;;;;5001033;28;20037;-74
2022/05/31 00:04:50;;;;;;;6.80;6.10;;;9.90;72.30;;;;;;5016648;28;20045;-75
2022/05/31 00:07:16;;;;;;;8.38;6.28;;;9.60;70.20;;;;;;4990944;28;20388;-77
2022/05/31 00:09:41;;;;;;;12.43;6.10;;;9.60;70.30;;;;;;5015511;28;20034;-78
2022/05/31 00:12:07;;;;;;;9.18;6.57;;;9.50;72.50;;;;;;5001793;28;20448;-77
2022/05/31 00:14:33;;;;;;;15.30;6.53;;;9.50;78.50;;;;;;5013460;28;20300;-74
2022/05/31 00:17:00;;;;;;;11.30;5.80;;;9.50;73.00;;;;;;5001483;28;20400;-74
2022/05/31 00:19:25;;;;;;;10.10;5.97;;;9.50;73.70;;;;;;4988809;28;20106;-77
2022/05/31 00:22:06;;;;;;;7.55;6.05;;;9.50;75.20;;;;;;5014839;28;20029;-77
2022/05/31 00:24:32;;;;;;;7.15;6.13;;;9.50;72.00;;;;;;5001003;28;20033;-77
2022/05/31 00:26:58;;;;;;;7.00;5.88;;;9.60;70.90;;;;;;4997189;28;20040;-77
2022/05/31 00:29:23;;;;;;;9.43;6.50;;;9.50;71.10;;;;;;4997387;28;20041;-77
2022/05/31 00:31:49;;;;;;;12.45;6.43;;;9.30;73.70;;;;;;5015870;28;20022;-75
2022/05/31 00:34:15;;;;;;;9.93;7.78;;;9.20;74.50;;;;;;5001651;28;20473;-74
2022/05/31 00:36:43;;;;;;;10.38;5.85;;;9.10;80.10;;;;;;5018492;28;20047;-75
2022/05/31 00:39:08;;;;;;;8.23;5.80;;;9.10;81.50;;;;;;5015015;28;20420;-74
2022/05/31 00:41:34;;;;;;;6.07;4.88;;;9.10;81.90;;;;;;5016590;28;20041;-75
2022/05/31 00:44:08;;;;;;;6.82;6.05;;;9.30;74.50;;;;;;5019005;28;20606;-74
2022/05/31 00:46:42;;;;;;;8.90;5.85;;;9.40;72.90;;;;;;5015206;28;20041;-74
2022/05/31 00:49:08;;;;;;;8.85;6.15;;;9.40;72.70;;;;;;5016126;28;20021;-75
2022/05/31 00:51:50;;;;;;;8.05;6.35;;;9.40;73.80;;;;;;5016034;28;20033;-74
2022/05/31 00:54:17;;;;;;;7.03;6.00;;;9.40;72.40;;;;;;5006206;28;20072;-74
2022/05/31 00:56:44;;;;;;;9.73;6.50;;;9.30;76.00;;;;;;4985272;28;20110;-74
2022/05/31 00:59:21;;;;;;;10.57;6.80;;;9.00;73.60;;;;;;5017318;28;20036;-74
2022/05/31 01:01:51;;;;;;;8.68;6.30;;;9.10;76.40;;;;;;5018672;28;20033;-74
2022/05/31 01:04:17;;;;;;;7.05;6.15;;;9.10;74.90;;;;;;5002848;28;20038;-76
2022/05/31 01:06:42;;;;;;;11.05;6.63;;;9.10;77.60;;;;;;4983231;28;20065;-76
2022/05/31 01:09:08;;;;;;;13.95;7.07;;;8.90;80.50;;;;;;5017908;28;20147;-76
2022/05/31 01:11:40;;;;;;;9.93;6.78;;;8.90;84.10;;;;;;5015110;28;20398;-76
2022/05/31 01:14:06;;;;;;;8.00;6.28;;;9.00;80.10;;;;;;4987164;28;20033;-76
2022/05/31 01:16:32;;;;;;;10.73;7.30;;;9.00;79.50;;;;;;4998821;28;20042;-76
2022/05/31 01:18:57;;;;;;;7.47;5.70;;;8.90;80.70;;;;;;4998860;28;20125;-75
2022/05/31 01:21:23;;;;;;;13.80;6.95;;;8.80;80.00;;;;;;5016143;28;20029;-76
2022/05/31 01:23:58;;;;;;;12.43;6.47;;;8.70;83.30;;;;;;4997456;28;20500;-76
2022/05/31 01:26:36;;;;;;;13.88;6.28;;;8.80;82.80;;;;;;4991699;28;20763;-76
2022/05/31 01:29:19;;;;;;;6.72;6.00;;;8.80;81.50;;;;;;5004340;28;20397;-76
2022/05/31 01:31:49;;;;;;;7.97;6.85;;;8.70;82.00;;;;;;5000399;28;20037;-76
2022/05/31 01:34:20;;;;;;;8.68;6.45;;;8.50;79.50;;;;;;4997133;28;20034;-76
2022/05/31 01:36:50;;;;;;;11.52;6.20;;;8.40;84.40;;;;;;4981503;28;20041;-76
2022/05/31 01:39:21;;;;;;;10.20;6.78;;;8.40;83.50;;;;;;5003058;28;20041;-76
2022/05/31 01:42:22;;;;;;;8.77;7.07;;;8.50;88.00;;;;;;5012409;28;20199;-75
2022/05/31 01:44:49;;;;;;;11.07;6.97;;;8.50;89.00;;;;;;5010169;28;20121;-76
2022/05/31 01:47:15;;;;;;;7.47;6.50;;;8.50;87.20;;;;;;5012809;28;20088;-75
2022/05/31 01:49:42;;;;;;;9.07;6.70;;;8.60;87.90;;;;;;5001732;28;20258;-76
2022/05/31 01:52:08;;;;;;;9.10;6.93;;;8.50;88.80;;;;;;5001177;28;20083;-75
2022/05/31 01:54:34;;;;;;;10.35;6.65;;;8.50;86.30;;;;;;4996964;28;20042;-75
2022/05/31 01:57:01;;;;;;;11.45;6.45;;;8.50;91.30;;;;;;5016057;28;20324;-76
2022/05/31 01:59:27;;;;;;;10.52;6.30;;;8.40;86.10;;;;;;5011949;28;20046;-76
2022/05/31 02:01:54;;;;;;;12.38;6.00;;;8.50;92.00;;;;;;4998870;28;20041;-75
2022/05/31 02:04:19;;;;;;;10.88;6.95;;;8.50;90.70;;;;;;5001169;28;20045;-75
2022/05/31 02:06:45;;;;;;;8.55;6.10;;;8.50;93.30;;;;;;5016108;28;20034;-75
2022/05/31 02:09:12;;;;;;;10.13;6.30;;;8.40;88.40;;;;;;5004519;28;20390;-75
2022/05/31 02:11:37;;;;;;;8.18;6.00;;;8.50;92.00;;;;;;5017757;28;20034;-76
2022/05/31 02:14:04;;;;;;;9.38;5.90;;;8.50;93.30;;;;;;5015262;28;20370;-75
2022/05/31 02:16:29;;;;;;;12.13;6.68;;;8.50;93.00;;;;;;5001557;28;20492;-76
2022/05/31 02:21:39;;;;;;;10.80;6.38;;;8.60;91.70;;;;;;5003893;28;20544;-76
2022/05/31 02:24:09;;;;;;;8.02;6.20;;;8.40;94.30;;;;;;5015113;28;20053;-76
2022/05/31 02:26:35;;;;;;;9.93;5.85;;;8.30;93.60;;;;;;4999382;28;20037;-76
2022/05/31 02:29:00;;;;;;;7.47;5.78;;;8.30;91.70;;;;;;5014282;28;20037;-75
2022/05/31 02:31:27;;;;;;;8.68;5.95;;;8.30;95.00;;;;;;5011435;28;20034;-76
2022/05/31 02:33:53;;;;;;;9.63;5.60;;;8.40;94.90;;;;;;4998553;28;20038;-77
2022/05/31 02:36:18;;;;;;;11.43;5.97;;;8.40;95.80;;;;;;5002880;28;20055;-78
2022/05/31 02:38:44;;;;;;;10.95;5.90;;;8.40;95.70;;;;;;5016482;28;20044;-77
2022/05/31 02:41:09;;;;;;;8.02;5.80;;;8.40;93.90;;;;;;5017039;28;20026;-77
2022/05/31 02:43:36;;;;;;;7.40;5.20;;;8.50;97.00;;;;;;5012813;28;20444;-78
2022/05/31 02:46:03;;;;;;;13.63;5.35;;;8.50;97.20;;;;;;4997103;28;20478;-78
2022/05/31 02:48:29;;;;;;;6.93;5.75;;;8.50;97.40;;;;;;4996136;28;20524;-78
2022/05/31 02:50:54;;;;;;;8.50;6.07;;;8.50;95.70;;;;;;5011150;28;20030;-78
2022/05/31 02:53:20;;;;;;;9.30;5.68;;;8.60;95.40;;;;;;4983581;28;20088;-78
2022/05/31 02:55:45;;;;;;;7.65;5.40;;;8.60;95.60;;;;;;5009130;28;20041;-78
2022/05/31 02:58:11;;;;;;;8.07;5.70;;;8.70;94.30;;;;;;5000802;28;20040;-78
2022/05/31 03:00:36;;;;;;;9.13;5.70;;;8.70;94.20;;;;;;4997251;28;20357;-78
2022/05/31 03:03:02;;;;;;;11.02;5.85;;;8.70;95.10;;;;;;5017240;28;20041;-78
2022/05/31 03:05:27;;;;;;;7.00;5.40;;;8.70;95.80;;;;;;5002107;28;20044;-78
2022/05/31 03:07:53;;;;;;;7.22;5.70;;;8.70;94.50;;;;;;5000299;28;20077;-78
2022/05/31 03:10:18;;;;;;;6.32;4.97;;;8.70;93.80;;;;;;5001959;28;20854;-79
2022/05/31 03:12:44;;;;;;;12.57;5.97;;;8.70;94.10;;;;;;5010260;28;20029;-79
2022/05/31 03:15:12;;;;;;;8.18;4.47;;;8.70;97.40;;;;;;4999971;28;20045;-78
2022/05/31 03:17:43;;;;;;;5.85;4.90;;;8.70;94.10;;;;;;4996187;28;20025;-79
2022/05/31 03:20:12;;;;;;;12.85;4.95;;;8.70;94.90;;;;;;5003639;28;20469;-78
2022/05/31 03:22:42;;;;;;;9.23;5.47;;;8.70;94.10;;;;;;5002903;28;20041;-79
2022/05/31 03:25:11;;;;;;;7.45;5.05;;;8.80;93.50;;;;;;5013842;28;20575;-78
2022/05/31 03:27:37;;;;;;;6.85;4.85;;;8.90;95.20;;;;;;4997254;28;20428;-78
2022/05/31 03:30:03;;;;;;;9.45;5.03;;;8.80;93.20;;;;;;5000511;28;20034;-78
2022/05/31 03:32:29;;;;;;;7.78;4.93;;;8.80;93.20;;;;;;4999970;28;20501;-78
2022/05/31 03:34:55;;;;;;;7.75;4.47;;;8.80;93.60;;;;;;5017729;28;20034;-78
2022/05/31 03:37:20;;;;;;;6.80;4.70;;;8.80;93.80;;;;;;4998980;28;20026;-78
2022/05/31 03:39:46;;;;;;;10.73;5.35;;;8.90;98.20;;;;;;5012114;28;20029;-78
2022/05/31 03:42:11;;;;;;;9.30;5.25;;;8.90;98.10;;;;;;4999683;28;20388;-78
2022/05/31 03:44:37;;;;;;;5.50;4.63;;;9.00;96.60;;;;;;5013335;28;20096;-78
2022/05/31 03:47:03;;;;;;;6.43;4.65;;;9.00;95.40;;;;;;4997036;28;20025;-78
2022/05/31 03:49:29;;;;;;;10.85;5.07;;;9.00;93.90;;;;;;5017730;28;20515;-78
2022/05/31 03:51:55;;;;;;;6.47;4.20;;;9.10;94.20;;;;;;5017126;28;20481;-78
2022/05/31 03:54:20;;;;;;;6.72;4.95;;;9.10;93.70;;;;;;4997795;28;20092;-78
2022/05/31 03:56:46;;;;;;;6.25;4.47;;;9.10;94.20;;;;;;5012709;28;20045;-78
2022/05/31 03:59:11;;;;;;;9.32;5.30;;;9.00;92.90;;;;;;4990229;28;20149;-79
2022/05/31 04:01:37;;;;;;;7.20;4.70;;;9.10;93.60;;;;;;5000096;28;20036;-79
2022/05/31 04:04:03;;;;;;;6.50;4.50;;;9.10;93.10;;;;;;5017472;28;20115;-78
2022/05/31 04:06:30;;;;;;;7.13;4.68;;;9.10;93.70;;;;;;5002361;28;20042;-79
2022/05/31 04:08:56;;;;;;;5.20;4.70;;;9.10;94.50;;;;;;4997529;28;20034;-78
2022/05/31 04:11:21;;;;;;;6.15;4.78;;;9.20;93.30;;;;;;4995519;28;20030;-78
2022/05/31 04:13:47;;;;;;;11.55;5.43;;;9.20;93.10;;;;;;5013907;28;20034;-78
2022/05/31 04:16:13;;;;;;;10.05;6.05;;;9.20;93.40;;;;;;5014360;28;20076;-78
2022/05/31 04:18:39;;;;;;;7.15;5.18;;;9.20;95.00;;;;;;5016773;28;20488;-78
2022/05/31 04:21:08;;;;;;;18.30;5.85;;;9.30;92.80;;;;;;4997727;28;20041;-78
2022/05/31 04:26:18;;;;;;;7.97;5.00;;;9.30;94.00;;;;;;4995773;28;20183;-78
2022/05/31 04:28:44;;;;;;;5.68;4.97;;;9.30;94.10;;;;;;5012723;28;20137;-78
2022/05/31 04:31:10;;;;;;;8.35;4.75;;;9.30;93.00;;;;;;4986754;28;20025;-78
2022/05/31 04:33:35;;;;;;;6.35;5.55;;;9.40;93.30;;;;;;5016290;28;20373;-78
2022/05/31 04:36:02;;;;;;;6.88;4.68;;;9.40;92.80;;;;;;5016715;28;20064;-78
2022/05/31 04:38:28;;;;;;;6.63;5.03;;;9.40;93.70;;;;;;5018590;28;20037;-78
2022/05/31 04:40:53;;;;;;;8.57;5.25;;;9.40;93.20;;;;;;5001077;28;20453;-78
2022/05/31 04:43:19;;;;;;;6.55;4.65;;;9.50;94.70;;;;;;5019496;28;20156;-78
2022/05/31 04:45:44;;;;;;;7.95;4.95;;;9.50;92.80;;;;;;4987305;28;20089;-78
2022/05/31 04:48:10;;;;;;;6.03;4.60;;;9.50;93.00;;;;;;5002637;28;20083;-79
2022/05/31 04:50:35;;;;;;;5.50;4.97;;;9.60;92.80;;;;;;5018464;28;20540;-78
2022/05/31 04:53:01;;;;;;;11.30;5.93;;;9.60;93.80;;;;;;5000719;28;20041;-79
2022/05/31 04:55:29;;;;;;;5.65;4.72;;;9.60;92.80;;;;;;5001559;28;20411;-78
2022/05/31 04:57:54;;;;;;;6.93;4.75;;;9.70;92.80;;;;;;5019098;28;20050;-78
2022/05/31 05:00:20;;;;;;;6.57;4.88;;;9.70;92.90;;;;;;4989501;28;20033;-78
2022/05/31 05:02:46;;;;;;;9.32;5.38;;;9.70;92.70;;;;;;5017557;28;20076;-78
2022/05/31 05:05:11;;;;;;;9.75;5.13;;;9.80;93.80;;;;;;5012479;28;20045;-78
2022/05/31 05:07:37;;;;;;;5.38;4.90;;;9.90;93.20;;;;;;4975142;28;20045;-78
2022/05/31 05:10:05;;;;;;;8.73;5.35;;;9.90;92.40;;;;;;5016250;28;20041;-78
2022/05/31 05:12:30;;;;;;;9.65;5.22;;;9.90;92.30;;;;;;5015042;28;20437;-78
2022/05/31 05:14:56;;;;;;;8.73;4.47;;;9.90;92.10;;;;;;5013442;28;20041;-79
2022/05/31 05:17:23;;;;;;;9.90;4.80;;;9.90;93.10;;;;;;5017926;28;20025;-78
2022/05/31 05:19:48;;;;;;;5.90;4.53;;;10.00;92.30;;;;;;4997851;28;20080;-78
2022/05/31 05:22:14;;;;;;;6.70;4.15;;;10.00;92.40;;;;;;5019304;28;20033;-78
2022/05/31 05:24:39;;;;;;;6.47;5.20;;;10.10;92.30;;;;;;5017450;28;20468;-78
2022/05/31 05:27:05;;;;;;;3.75;2.90;;;10.20;92.60;;;;;;5015685;28;20612;-78
2022/05/31 05:32:15;;;;;;;6.60;3.40;;;10.20;91.10;;;;;;5013816;28;20025;-79
2022/05/31 05:34:40;;;;;;;4.20;3.75;;;10.30;90.20;;;;;;5001817;28;20030;-79
2022/05/31 05:37:06;;;;;;;11.88;5.47;;;10.40;90.40;;;;;;5000582;28;20045;-78
2022/05/31 05:39:31;;;;;;;9.52;5.32;;;10.40;90.60;;;;;;5001302;28;20030;-79
2022/05/31 05:41:57;;;;;;;9.73;6.20;;;10.30;91.00;;;;;;5017753;28;20456;-80
2022/05/31 05:44:22;;;;;;;10.43;6.15;;;10.30;93.40;;;;;;5003337;28;20029;-79
2022/05/31 05:46:48;;;;;;;13.25;6.55;;;10.30;94.60;;;;;;5012268;28;20124;-80
2022/05/31 05:49:13;;;;;;;9.88;6.53;;;10.30;93.70;;;;;;5018391;28;20031;-80
2022/05/31 05:51:39;;;;;;;13.52;7.85;;;10.40;93.40;;;;;;5002428;28;20036;-80
2022/05/31 05:54:06;;;;;;;10.48;7.32;;;10.40;93.40;;;;;;5015375;28;20052;-79
2022/05/31 05:56:32;;;;;;;9.50;6.35;;;10.50;94.70;;;;;;5001688;28;20535;-80
2022/05/31 05:58:57;;;;;;;13.88;8.40;;;10.50;94.90;;;;;;4999937;28;20109;-80
2022/05/31 06:01:29;;;;;;;11.82;8.35;;;10.60;95.40;;;;;;5005483;28;20473;-80
2022/05/31 06:03:56;;;;;;;15.45;8.75;;;10.70;95.10;;;;;;5018059;28;20049;-80
2022/05/31 06:06:21;;;;;;;10.52;6.50;;;10.80;94.30;;;;;;5000474;28;20038;-80
2022/05/31 06:08:53;;;;;;;10.50;7.50;;;11.00;94.10;;;;;;5000123;28;20064;-80
2022/05/31 06:11:26;;;;;;;9.13;6.97;;;11.10;95.50;;;;;;5015371;28;20060;-79
2022/05/31 06:14:00;;;;;;;13.93;7.13;;;11.30;95.50;;;;;;5001429;28;20042;-80
2022/05/31 06:16:29;;;;;;;12.10;7.05;;;11.30;95.20;;;;;;5011238;28;20041;-79
2022/05/31 06:19:22;;;;;;;9.40;6.90;;;11.40;96.50;;;;;;5015733;28;20064;-80
2022/05/31 06:21:48;;;;;;;8.77;6.43;;;11.50;95.70;;;;;;5012313;28;20033;-80
2022/05/31 06:24:14;;;;;;;6.30;4.55;;;11.60;96.10;;;;;;4995014;28;20398;-80
2022/05/31 06:26:40;;;;;;;7.97;5.47;;;11.70;93.70;;;;;;4987228;28;20052;-79
2022/05/31 06:29:05;;;;;;;5.60;4.97;;;11.90;94.10;;;;;;4997713;28;20034;-79
2022/05/31 06:31:31;;;;;;;10.38;6.47;;;12.00;93.60;;;;;;5016158;28;20554;-79
2022/05/31 06:33:56;;;;;;;7.88;6.32;;;12.10;97.20;;;;;;5000718;28;20033;-80
2022/05/31 06:36:23;;;;;;;10.32;6.40;;;12.20;97.40;;;;;;5002863;28;20044;-80
2022/05/31 06:38:48;;;;;;;10.95;5.45;;;12.30;98.70;;;;;;4985610;28;20061;-80
2022/05/31 06:41:14;;;;;;;12.18;6.50;;;12.50;99.00;;;;;;5014394;28;20061;-79
2022/05/31 06:43:40;;;;;;;7.75;5.53;;;12.50;98.20;;;;;;5012958;28;20064;-80
2022/05/31 06:46:07;;;;;;;4.25;3.22;;;12.50;95.60;;;;;;4998326;28;20033;-79
2022/05/31 06:48:33;;;;;;;5.43;4.07;;;12.60;93.80;;;;;;5013571;28;20044;-80
2022/05/31 06:51:06;;;;;;;8.52;4.57;;;12.60;95.40;;;;;;5012347;28;20022;-80
2022/05/31 06:58:57;;;;;;;8.65;5.68;;;12.70;95.80;;;;;;5014773;28;20680;-79
2022/05/31 07:01:30;;;;;;;12.65;6.25;;;12.70;96.30;;;;;;4997795;28;20547;-79
2022/05/31 07:03:56;;;;;;;12.60;6.82;;;12.70;97.90;;;;;;5003805;28;20534;-80
2022/05/31 07:06:23;;;;;;;7.68;6.70;;;12.60;98.70;;;;;;4983131;28;20034;-79
2022/05/31 07:08:48;;;;;;;16.05;9.48;;;12.60;97.20;;;;;;4981027;28;20079;-79
2022/05/31 07:11:14;;;;;;;10.65;8.07;;;12.50;96.40;;;;;;4999715;28;20112;-80
2022/05/31 07:13:39;;;;;;;10.35;8.35;;;12.50;96.70;;;;;;4987706;28;20026;-79
2022/05/31 07:16:05;;;;;;;14.30;9.23;;;12.50;97.20;;;;;;4984867;28;20038;-80
2022/05/31 07:18:30;;;;;;;13.20;9.43;;;12.40;99.30;;;;;;4999445;28;20037;-80
2022/05/31 07:20:56;;;;;;;12.77;9.20;;;12.30;99.90;;;;;;5012853;28;20061;-80
2022/05/31 07:23:21;;;;;;;14.25;9.13;;;12.30;99.90;;;;;;4986658;28;20124;-80
2022/05/31 07:25:47;;;;;;;15.70;8.25;;;12.30;99.90;;;;;;4979808;28;20101;-79
2022/05/31 07:28:12;;;;;;;11.80;8.00;;;12.30;99.90;;;;;;5000604;28;20033;-79
2022/05/31 07:30:38;;;;;;;24.15;11.05;;;12.30;99.90;;;;;;5013177;28;20025;-79
2022/05/31 07:33:03;;;;;;;16.33;11.15;;;12.20;99.90;;;;;;5012953;28;20408;-78
2022/05/31 07:35:29;;;;;;;12.93;10.13;;;12.20;99.90;;;;;;5013173;28;20121;-79
2022/05/31 07:37:55;;;;;;;13.93;9.90;;;12.20;99.90;;;;;;4982573;28;20029;-79
2022/05/31 07:40:20;;;;;;;13.80;10.02;;;12.20;99.90;;;;;;4986243;28;20026;-79
2022/05/31 07:42:46;;;;;;;16.17;10.38;;;12.10;99.70;;;;;;4993360;28;20148;-77
2022/05/31 07:45:11;;;;;;;12.32;8.95;;;12.10;99.50;;;;;;5004994;28;20064;-78
2022/05/31 07:47:37;;;;;;;14.95;9.93;;;12.00;99.80;;;;;;5001272;28;20026;-82
2022/05/31 07:50:03;;;;;;;18.30;11.07;;;12.00;99.50;;;;;;4988030;28;20037;-81
2022/05/31 07:52:29;;;;;;;15.70;10.35;;;11.90;99.90;;;;;;5003126;28;20103;-80
2022/05/31 07:54:55;;;;;;;16.77;11.00;;;11.80;99.90;;;;;;5015740;28;20476;-80
2022/05/31 08:00:05;;;;;;;14.40;12.70;;;11.70;99.90;;;;;;5019178;28;20168;-80
2022/05/31 08:02:31;;;;;;;18.02;11.50;;;11.70;99.90;;;;;;5004870;28;20684;-80
2022/05/31 08:04:56;;;;;;;18.40;11.57;;;11.70;99.90;;;;;;5019688;28;20040;-80
2022/05/31 08:07:22;;;;;;;19.67;10.65;;;11.70;99.90;;;;;;5002387;28;20030;-80
2022/05/31 08:09:49;;;;;;;17.65;11.85;;;11.70;99.90;;;;;;4994294;28;20029;-81
2022/05/31 08:12:14;;;;;;;13.63;11.07;;;11.70;99.90;;;;;;4991352;28;20033;-80
2022/05/31 08:14:40;;;;;;;18.75;12.52;;;11.80;99.90;;;;;;5002776;28;20037;-80
2022/05/31 08:17:06;;;;;;;18.95;11.68;;;11.90;99.90;;;;;;5024546;28;20030;-80
2022/05/31 08:19:31;;;;;;;17.92;11.45;;;12.10;99.90;;;;;;5002967;28;20682;-80
2022/05/31 08:21:57;;;;;;;16.77;11.57;;;12.20;99.90;;;;;;5002439;28;20057;-81
2022/05/31 08:24:23;;;;;;;21.27;10.82;;;12.30;99.90;;;;;;4990134;28;20536;-80
2022/05/31 08:26:49;;;;;;;15.98;11.13;;;12.30;99.90;;;;;;4991098;28;20792;-80
2022/05/31 08:29:14;;;;;;;19.00;11.18;;;12.30;99.90;;;;;;4989597;28;20033;-80
2022/05/31 08:31:40;;;;;;;19.20;12.95;;;12.40;99.90;;;;;;4987943;28;20033;-80
2022/05/31 08:34:06;;;;;;;17.35;11.45;;;12.40;99.90;;;;;;5018123;28;20030;-80
2022/05/31 08:36:32;;;;;;;17.05;11.82;;;12.40;99.90;;;;;;5001554;28;20038;-80
2022/05/31 08:38:59;;;;;;;24.63;12.93;;;12.40;99.90;;;;;;5002159;28;20046;-80
2022/05/31 08:41:33;;;;;;;22.05;12.88;;;12.60;99.90;;;;;;5016231;28;20079;-80
2022/05/31 08:44:00;;;;;;;15.20;13.27;;;12.70;99.90;;;;;;5017839;28;20489;-80
2022/05/31 08:46:32;;;;;;;21.23;12.35;;;12.80;99.90;;;;;;5004286;28;20548;-79
2022/05/31 08:48:57;;;;;;;17.80;12.93;;;13.10;99.90;;;;;;5014646;28;20688;-80
2022/05/31 08:51:53;;;;;;;16.05;10.68;;;13.30;99.90;;;;;;5019333;28;20029;-80
2022/05/31 08:57:15;;;;;;;19.33;9.30;;;13.90;99.90;;;;;;5008813;28;20037;-80
2022/05/31 08:59:58;;;;;;;12.75;8.65;;;14.10;99.90;;;;;;5001387;28;20338;-79
2022/05/31 09:02:28;;;;;;;12.15;8.40;;;14.30;99.90;;;;;;5018543;28;20037;-80
2022/05/31 09:05:03;;;;;;;11.88;7.80;;;14.50;99.90;;;;;;5003194;28;20030;-80
2022/05/31 09:07:35;;;;;;;13.73;7.68;;;14.60;99.90;;;;;;4989826;28;20030;-80
2022/05/31 09:10:07;;;;;;;10.05;6.97;;;14.80;99.90;;;;;;5016646;28;20072;-79
2022/05/31 09:12:48;;;;;;;11.15;8.30;;;14.90;99.90;;;;;;5000530;28;20083;-80
2022/05/31 09:15:36;;;;;;;13.27;9.02;;;15.10;99.90;;;;;;5020858;28;20033;-80
2022/05/31 09:18:32;;;;;;;11.00;6.32;;;15.30;99.90;;;;;;5015240;28;20037;-80
2022/05/31 09:21:00;;;;;;;10.98;7.63;;;15.30;99.90;;;;;;5017952;28;20026;-80
2022/05/31 09:23:28;;;;;;;10.52;6.40;;;15.40;99.90;;;;;;5005549;28;20034;-80
2022/05/31 09:26:25;;;;;;;15.13;8.45;;;15.60;99.90;;;;;;5016671;28;20033;-80
2022/05/31 09:29:07;;;;;;;8.77;6.65;;;15.60;99.90;;;;;;5018297;28;20022;-80
2022/05/31 09:31:53;;;;;;;15.63;8.15;;;15.80;99.90;;;;;;5012922;28;20533;-80
2022/05/31 09:34:37;;;;;;;14.25;8.15;;;16.00;99.90;;;;;;4996905;28;20112;-79
2022/05/31 09:37:05;;;;;;;11.13;5.70;;;16.20;99.90;;;;;;5018411;28;20041;-80
2022/05/31 09:39:36;;;;;;;13.75;6.85;;;16.20;99.90;;;;;;5016841;28;20442;-80
2022/05/31 09:42:06;;;;;;;10.48;6.60;;;16.30;99.90;;;;;;5017473;28;20034;-79
2022/05/31 09:44:40;;;;;;;6.97;4.75;;;16.60;99.90;;;;;;5013789;28;20045;-80
2022/05/31 09:47:22;;;;;;;13.80;6.90;;;16.80;99.90;;;;;;4986497;28;20033;-79
2022/05/31 09:49:50;;;;;;;12.80;6.38;;;16.90;99.90;;;;;;4993545;28;20393;-79
2022/05/31 09:52:35;;;;;;;14.02;6.40;;;17.10;99.90;;;;;;5002682;28;20037;-80
2022/05/31 09:58:12;;;;;;;16.83;6.53;;;17.80;99.90;;;;;;5004295;28;20044;-78
2022/05/31 10:01:01;;;;;;;8.75;5.75;;;18.20;99.90;;;;;;4987597;28;20464;-80
2022/05/31 10:03:40;;;;;;;11.98;6.93;;;18.40;99.90;;;;;;4983701;28;20028;-80
2022/05/31 10:06:21;;;;;;;8.43;5.97;;;18.90;99.90;;;;;;5002214;28;20035;-80
2022/05/31 10:08:48;;;;;;;10.43;6.10;;;19.00;99.90;;;;;;5016818;28;20548;-79
2022/05/31 10:11:33;;;;;;;12.68;6.05;;;19.30;99.90;;;;;;5005364;28;20040;-80
2022/05/31 10:14:15;;;;;;;9.57;5.97;;;19.70;99.90;;;;;;4987166;28;20034;-78
2022/05/31 10:16:42;;;;;;;6.93;4.53;;;19.70;99.90;;;;;;4999889;28;20040;-78
2022/05/31 10:19:20;;;;;;;9.48;5.72;;;19.80;99.90;;;;;;4994150;28;20588;-79
2022/05/31 10:21:46;;;;;;;10.40;5.10;;;19.80;99.90;;;;;;5000022;28;20033;-79
2022/05/31 10:24:25;;;;;;;10.85;6.20;;;20.00;99.90;;;;;;5023295;28;20030;-78
2022/05/31 10:27:13;;;;;;;11.80;5.72;;;20.20;99.90;;;;;;5016649;28;20460;-78
2022/05/31 10:29:52;;;;;;;7.65;4.70;;;20.30;99.90;;;;;;5022593;28;20524;-79
2022/05/31 10:32:32;;;;;;;10.98;5.60;;;20.40;99.90;;;;;;5004511;28;20840;-79
2022/05/31 10:35:17;;;;;;;6.18;3.70;;;20.60;99.90;;;;;;5019593;28;20068;-79
2022/05/31 10:37:57;;;;;;;6.88;4.35;;;20.70;98.00;;;;;;5018328;28;20036;-79
2022/05/31 10:40:43;;;;;;;8.55;4.03;;;20.90;99.90;;;;;;5007160;28;20032;-79
2022/05/31 10:43:25;;;;;;;;;;;21.50;99.90;;;;;;5014339;28;20044;-79
2022/05/31 10:45:52;;;;;;;9.85;3.58;;;21.60;97.90;;;;;;5015807;28;20380;-80
2022/05/31 10:48:17;;;;;;;5.53;4.03;;;21.60;98.40;;;;;;5004008;28;20025;-79
2022/05/31 10:51:04;;;;;;;4.18;3.55;;;22.00;99.50;;;;;;5014258;28;20284;-80
2022/05/31 10:53:35;;;;;;;8.27;4.20;;;22.30;99.80;;;;;;5015715;28;20059;-80
2022/05/31 10:56:16;;;;;;;5.70;3.72;;;22.40;98.90;;;;;;5018338;28;20073;-80
2022/05/31 10:59:00;;;;;;;7.13;3.50;;;22.70;97.80;;;;;;4992103;28;20137;-80
2022/05/31 11:01:41;;;;;;;5.95;3.15;;;23.00;96.70;;;;;;5004856;28;20034;-80
2022/05/31 11:04:21;;;;;;;4.50;2.92;;;23.20;96.30;;;;;;5024725;28;20516;-80
2022/05/31 11:07:06;;;;;;;5.47;2.78;;;23.20;92.20;;;;;;5017825;28;20049;-80
2022/05/31 11:12:50;;;;;;;6.30;2.63;;;23.70;95.80;;;;;;5019111;28;20431;-81
2022/05/31 11:15:25;;;;;;;5.38;2.78;;;23.90;92.90;;;;;;5016980;28;20101;-81
2022/05/31 11:18:10;;;;;;;4.78;3.35;;;23.90;93.90;;;;;;5015200;28;20032;-81
2022/05/31 11:20:49;;;;;;;7.03;3.55;;;23.90;93.50;;;;;;5014507;28;20113;-82
2022/05/31 11:23:32;;;;;;;6.18;3.22;;;24.00;91.90;;;;;;5014335;28;20393;-81
2022/05/31 11:26:12;;;;;;;5.68;3.17;;;24.10;91.90;;;;;;4984938;28;20497;-82
2022/05/31 11:28:42;;;;;;;5.38;3.05;;;24.20;90.50;;;;;;5003038;28;20030;-83
2022/05/31 11:31:23;;;;;;;5.80;3.63;;;24.40;91.70;;;;;;5018569;28;20041;-83
2022/05/31 11:33:49;;;;;;;5.93;3.10;;;24.50;91.20;;;;;;4998198;28;20026;-82
2022/05/31 11:36:38;;;;;;;5.43;3.05;;;24.70;91.60;;;;;;5022283;28;20493;-82
2022/05/31 11:39:31;;;;;;;4.55;3.20;;;24.90;89.70;;;;;;5001965;28;20030;-83
2022/05/31 11:42:15;;;;;;;7.00;4.40;;;25.30;90.50;;;;;;5005686;28;20033;-85
2022/05/31 11:44:46;;;;;;;6.05;3.40;;;25.80;87.30;;;;;;5020908;28;20985;-84
2022/05/31 11:47:14;;;;;;;6.95;3.00;;;25.90;84.50;;;;;;5023538;28;20083;-85
2022/05/31 11:50:03;;;;;;;5.72;3.22;;;26.00;85.70;;;;;;5017733;28;20045;-85
2022/05/31 11:53:06;;;;;;;4.93;2.80;;;26.10;84.40;;;;;;5005600;28;20370;-86
2022/05/31 11:55:40;;;;;;;10.20;3.83;;;26.30;86.50;;;;;;5019182;28;20045;-86
2022/05/31 11:58:20;;;;;;;6.13;3.20;;;26.40;83.70;;;;;;5019834;28;20029;-86
2022/05/31 12:01:14;;;;;;;5.65;2.95;;;26.60;81.20;;;;;;5006576;28;20056;-86
2022/05/31 12:03:51;;;;;;;5.50;2.90;;;26.90;85.20;;;;;;5017876;28;20516;-87
2022/05/31 12:06:31;;;;;;;6.40;2.65;;;27.10;77.10;;;;;;4990560;28;20029;-86
2022/05/31 12:09:15;;;;;;;7.05;3.05;;;27.40;82.80;;;;;;5015637;28;20140;-86
2022/05/31 12:11:43;;;;;;;5.35;3.13;;;27.50;71.60;;;;;;5001046;28;20488;-86
2022/05/31 12:14:09;;;;;;;5.03;2.85;;;27.90;80.70;;;;;;5008581;28;20098;-86
2022/05/31 12:16:35;;;;;;;5.75;2.75;;;28.30;70.20;;;;;;5003448;28;20033;-86
2022/05/31 12:19:51;;;;;;;4.35;2.30;;;28.30;74.40;;;;;;5006322;28;20384;-86
2022/05/31 12:22:28;;;;;;;6.00;2.70;;;28.70;74.00;;;;;;5002542;28;20076;-86
2022/05/31 12:25:07;;;;;;;4.57;2.65;;;29.50;66.40;;;;;;5008185;28;20037;-85
2022/05/31 12:27:42;;;;;;;7.00;3.03;;;29.50;64.50;;;;;;5001819;28;20033;-84
2022/05/31 12:30:21;;;;;;;3.03;2.33;;;29.50;64.70;;;;;;5001144;28;20030;-84
2022/05/31 12:32:48;;;;;;;5.50;2.38;;;29.40;63.70;;;;;;5020099;28;20033;-84
2022/05/31 12:35:36;;;;;;;5.47;2.88;;;29.30;63.70;;;;;;4985195;28;20033;-84
2022/05/31 12:38:02;;;;;;;3.75;2.85;;;29.50;62.20;;;;;;5011026;28;20104;-84
2022/05/31 12:40:33;;;;;;;4.70;2.90;;;29.60;59.70;;;;;;5018774;28;20117;-83
2022/05/31 12:43:00;;;;;;;3.75;2.75;;;29.80;59.10;;;;;;5024585;28;20026;-83
2022/05/31 12:45:28;;;;;;;5.22;2.47;;;29.80;59.30;;;;;;5001034;28;20421;-83
2022/05/31 12:47:58;;;;;;;3.78;1.98;;;29.80;59.50;;;;;;5021049;28;20030;-82
2022/05/31 12:50:55;;;;;;;5.43;1.58;;;29.80;56.60;;;;;;5021704;28;20025;-82
2022/05/31 12:53:35;;;;;;;4.90;2.08;;;29.70;58.70;;;;;;5019683;28;20034;-81
2022/05/31 12:56:01;;;;;;;2.78;1.88;;;30.00;56.30;;;;;;5015227;28;20034;-80
2022/05/31 12:58:45;;;;;;;3.55;1.95;;;30.00;56.30;;;;;;5019728;28;20041;-80
2022/05/31 13:01:15;;;;;;;2.15;1.85;;;29.80;57.80;;;;;;5018657;28;20029;-80
2022/05/31 13:03:50;;;;;;;1.90;1.63;;;29.90;58.50;;;;;;5015744;28;20026;-81
2022/05/31 13:06:22;;;;;;;2.35;1.50;;;29.70;57.80;;;;;;5017633;28;20041;-80
2022/05/31 13:09:04;;;;;;;2.65;1.45;;;29.70;56.10;;;;;;5015316;28;20555;-80
2022/05/31 13:20:20;;;;;;;4.45;1.48;;;30.50;54.20;;;;;;5013486;28;20628;-80
2022/05/31 13:22:49;;;;;;;1.60;0.95;;;30.40;56.10;;;;;;5006026;28;20558;-80
2022/05/31 13:25:26;;;;;;;1.90;1.00;;;30.60;51.70;;;;;;4987965;28;20029;-80
2022/05/31 13:27:57;;;;;;;1.83;1.08;;;31.00;52.40;;;;;;4995529;28;20415;-80
2022/05/31 13:30:25;;;;;;;2.40;1.42;;;31.10;50.30;;;;;;5007531;28;20054;-80
2022/05/31 13:32:50;;;;;;;1.38;1.27;;;31.50;46.70;;;;;;4998725;28;20397;-80
2022/05/31 13:35:17;;;;;;;2.28;1.20;;;31.60;44.60;;;;;;4990287;28;20030;-79
2022/05/31 13:38:02;;;;;;;2.30;0.80;;;31.60;44.90;;;;;;5017590;28;20499;-79